Time;durP1;ratioP1;P1;durP2;ratioP2;P2;SDS_P1;SDS_P2;PMS_P1;PMS_P2;Temp;Humidity;BMP_temperature;BMP_pressure;BME280_temperature;BME280_humidity;BME280_pressure;Samples;Min_cycle;Max_cycle;Signal;HPM_P1;HPM_P2
2021/12/26 00:00:34;;;;;;;16.03;6.33;;;-13.00;99.90;;;;;;8393784;28;20307;-66
2021/12/26 00:04:36;;;;;;;23.83;8.87;;;-13.00;1.00;;;;;;8394155;28;20185;-66
2021/12/26 00:08:37;;;;;;;18.20;8.07;;;-13.00;1.00;;;;;;8390968;28;20188;-66
2021/12/26 00:12:38;;;;;;;17.47;7.67;;;-13.00;99.90;;;;;;8383435;28;20252;-66
2021/12/26 00:16:41;;;;;;;20.23;7.53;;;-13.00;1.00;;;;;;8388427;28;20201;-66
2021/12/26 00:20:44;;;;;;;18.47;6.50;;;-13.10;1.00;;;;;;8397788;28;20525;-66
2021/12/26 00:24:46;;;;;;;21.17;8.07;;;-13.10;1.00;;;;;;8418641;28;20185;-66
2021/12/26 00:28:47;;;;;;;15.40;7.57;;;-13.10;64.20;;;;;;8411932;27;20185;-73
2021/12/26 00:32:49;;;;;;;22.83;7.53;;;-13.20;99.90;;;;;;8386049;28;20196;-66
2021/12/26 00:36:49;;;;;;;17.03;8.27;;;-13.20;99.90;;;;;;8424527;27;20180;-66
2021/12/26 00:40:50;;;;;;;23.57;7.87;;;-13.20;99.90;;;;;;8397057;28;20262;-66
2021/12/26 00:44:51;;;;;;;26.83;8.17;;;-13.20;97.30;;;;;;8393266;28;20185;-66
2021/12/26 00:48:52;;;;;;;11.53;7.27;;;-13.20;99.90;;;;;;8389887;28;20188;-66
2021/12/26 00:52:53;;;;;;;18.67;5.80;;;-13.30;99.90;;;;;;8430742;27;20257;-66
2021/12/26 00:56:56;;;;;;;12.67;6.30;;;-13.30;1.00;;;;;;8392165;28;20191;-66
2021/12/26 01:00:57;;;;;;;16.77;8.63;;;-13.30;99.90;;;;;;8389701;28;20212;-66
2021/12/26 01:04:58;;;;;;;26.13;7.63;;;-13.30;99.90;;;;;;8387215;28;20185;-66
2021/12/26 01:08:59;;;;;;;22.17;8.17;;;-13.30;2.10;;;;;;8421445;27;20274;-66
2021/12/26 01:13:10;;;;;;;20.07;7.10;;;-13.30;1.00;;;;;;8392149;28;20192;-66
2021/12/26 01:17:15;;;;;;;19.73;7.57;;;-13.40;99.90;;;;;;8399135;28;20189;-66
2021/12/26 01:21:18;;;;;;;17.17;8.23;;;-13.40;99.90;;;;;;8390019;28;20224;-66
2021/12/26 01:25:18;;;;;;;16.37;7.50;;;-13.40;99.90;;;;;;8394226;28;20185;-66
2021/12/26 01:29:19;;;;;;;17.43;8.10;;;-13.50;99.90;;;;;;8389116;28;20181;-66
2021/12/26 01:33:21;;;;;;;17.17;8.90;;;-13.50;99.90;;;;;;8389497;28;20181;-66
2021/12/26 01:37:21;;;;;;;18.43;8.27;;;-13.50;99.90;;;;;;8394637;28;20188;-66
2021/12/26 01:41:23;;;;;;;25.67;8.53;;;-13.50;99.90;;;;;;8399705;28;20200;-66
2021/12/26 01:45:23;;;;;;;18.53;8.53;;;-13.50;99.90;;;;;;8386950;28;20233;-66
2021/12/26 01:49:27;;;;;;;27.67;9.50;;;-13.60;15.40;;;;;;8382345;28;20185;-66
2021/12/26 01:53:38;;;;;;;19.30;8.43;;;-13.60;44.50;;;;;;8386184;28;20189;-66
2021/12/26 01:57:39;;;;;;;30.67;9.47;;;-13.50;70.90;;;;;;8384378;28;20196;-66
2021/12/26 02:01:39;;;;;;;19.73;8.53;;;-13.50;99.90;;;;;;8423232;27;20312;-66
2021/12/26 02:05:41;;;;;;;18.97;8.43;;;-13.50;99.90;;;;;;8414246;28;20238;-66
2021/12/26 02:09:41;;;;;;;18.23;8.80;;;-13.50;99.90;;;;;;8416759;28;20279;-66
2021/12/26 02:13:43;;;;;;;26.10;9.53;;;-13.60;75.10;;;;;;8391627;28;20180;-66
2021/12/26 02:17:44;;;;;;;27.53;8.50;;;-13.60;99.90;;;;;;8385550;28;20185;-66
2021/12/26 02:30:12;;;;;;;39.57;10.47;;;-13.70;99.90;;;;;;8389491;28;20208;-66
2021/12/26 02:34:12;;;;;;;19.80;9.17;;;-13.70;99.90;;;;;;8387281;28;20192;-66
2021/12/26 02:38:14;;;;;;;22.67;9.23;;;-13.70;99.90;;;;;;8402771;28;20208;-67
2021/12/26 02:42:18;;;;;;;12.23;7.93;;;-13.70;99.90;;;;;;8393556;28;20209;-66
2021/12/26 02:46:19;;;;;;;20.43;8.70;;;-13.80;99.90;;;;;;8417238;28;20265;-66
2021/12/26 02:50:22;;;;;;;25.17;9.00;;;-13.80;99.90;;;;;;8397990;28;20190;-66
2021/12/26 02:54:24;;;;;;;22.03;9.07;;;-13.90;99.90;;;;;;8385348;28;20601;-66
2021/12/26 02:58:25;;;;;;;18.80;8.37;;;-13.90;1.00;;;;;;8395830;28;20215;-66
2021/12/26 03:02:26;;;;;;;21.80;9.80;;;-13.90;99.90;;;;;;8383875;28;20216;-66
2021/12/26 03:07:01;;;;;;;31.47;10.03;;;-13.90;4.40;;;;;;8411483;28;20219;-66
2021/12/26 03:10:54;;;;;;;19.47;9.63;;;-13.90;67.10;;;;;;8391196;28;20416;-66
2021/12/26 03:14:55;;;;;;;26.93;10.20;;;-13.90;95.50;;;;;;8425437;28;20261;-66
2021/12/26 03:19:01;;;;;;;22.23;8.43;;;-13.90;99.90;;;;;;8430944;27;20185;-66
2021/12/26 03:23:02;;;;;;;22.50;8.33;;;-13.90;99.90;;;;;;8389609;28;20209;-66
2021/12/26 03:27:05;;;;;;;20.40;8.87;;;-13.90;8.40;;;;;;8423946;27;20221;-66
2021/12/26 03:31:06;;;;;;;22.67;8.60;;;-14.00;3.30;;;;;;8392087;28;20200;-67
2021/12/26 03:35:08;;;;;;;24.30;11.30;;;-14.00;1.00;;;;;;8395704;28;20189;-66
2021/12/26 03:39:09;;;;;;;18.23;9.20;;;-14.10;1.00;;;;;;8391781;28;20189;-66
2021/12/26 03:43:10;;;;;;;23.30;9.10;;;-14.10;1.00;;;;;;8390883;28;20634;-66
2021/12/26 03:47:10;;;;;;;19.17;8.50;;;-14.10;99.90;;;;;;8398714;28;20191;-66
2021/12/26 03:51:11;;;;;;;19.57;8.90;;;-14.20;99.90;;;;;;8396478;28;20189;-66
2021/12/26 03:55:13;;;;;;;21.50;8.10;;;-14.20;99.90;;;;;;8396272;28;20185;-66
2021/12/26 03:59:14;;;;;;;22.53;8.70;;;-14.20;99.90;;;;;;8395386;28;20213;-66
2021/12/26 04:03:15;;;;;;;24.97;10.53;;;-14.20;99.90;;;;;;8391471;28;20220;-66
2021/12/26 04:07:16;;;;;;;18.43;9.33;;;-14.20;99.90;;;;;;8388731;28;20281;-66
2021/12/26 04:11:17;;;;;;;19.80;9.17;;;-14.30;99.90;;;;;;8387220;28;20223;-66
2021/12/26 04:15:21;;;;;;;19.10;9.93;;;-14.30;1.00;;;;;;8389467;28;20215;-66
2021/12/26 04:19:21;;;;;;;26.37;10.17;;;-14.30;99.90;;;;;;8391936;28;20185;-73
2021/12/26 04:23:22;;;;;;;20.37;10.07;;;-14.30;1.00;;;;;;8387357;28;20262;-66
2021/12/26 04:27:24;;;;;;;16.73;7.60;;;-14.40;1.00;;;;;;8398016;28;20181;-66
2021/12/26 04:31:25;;;;;;;23.03;9.83;;;-14.40;99.90;;;;;;8389183;28;20197;-66
2021/12/26 04:35:26;;;;;;;26.43;10.30;;;-14.40;19.60;;;;;;8385618;28;20197;-66
2021/12/26 04:39:26;;;;;;;25.80;9.43;;;-14.40;95.90;;;;;;8393480;28;20301;-66
2021/12/26 04:43:27;;;;;;;18.77;8.70;;;-14.40;99.90;;;;;;8421622;28;20273;-66
2021/12/26 04:47:28;;;;;;;17.23;8.20;;;-14.40;99.90;;;;;;8391810;28;20177;-66
2021/12/26 04:51:29;;;;;;;17.97;8.57;;;-14.40;99.90;;;;;;8387848;28;20289;-66
2021/12/26 04:55:30;;;;;;;18.27;8.33;;;-14.40;1.00;;;;;;8396185;28;20215;-66
2021/12/26 04:59:31;;;;;;;27.27;10.60;;;-14.40;27.10;;;;;;8399118;28;20193;-66
2021/12/26 05:03:33;;;;;;;30.43;10.90;;;-14.40;99.90;;;;;;8377080;28;20206;-66
2021/12/26 05:07:35;;;;;;;18.93;7.93;;;-14.50;1.00;;;;;;8381393;28;20199;-66
2021/12/26 05:11:37;;;;;;;44.30;9.97;;;-14.50;1.00;;;;;;8423707;27;20205;-66
2021/12/26 05:15:38;;;;;;;34.20;9.53;;;-14.50;1.00;;;;;;8390779;28;20251;-66
2021/12/26 05:19:38;;;;;;;20.70;10.57;;;-14.50;93.50;;;;;;8393720;28;20181;-65
2021/12/26 05:23:39;;;;;;;19.33;9.83;;;-14.60;1.00;;;;;;8388920;28;20300;-66
2021/12/26 05:27:40;;;;;;;19.03;10.10;;;-14.60;1.00;;;;;;8390936;28;20177;-66
2021/12/26 05:31:41;;;;;;;20.20;8.60;;;-14.60;1.00;;;;;;8387964;28;20220;-66
2021/12/26 05:35:42;;;;;;;23.73;9.93;;;-14.60;46.30;;;;;;8389480;28;20196;-67
2021/12/26 05:39:43;;;;;;;26.33;10.20;;;-14.60;99.90;;;;;;8402421;28;20188;-75
2021/12/26 05:43:44;;;;;;;32.77;11.57;;;-14.60;1.00;;;;;;8420042;28;20203;-66
2021/12/26 05:47:45;;;;;;;16.03;8.33;;;-14.70;1.00;;;;;;8385328;28;20199;-66
2021/12/26 05:51:46;;;;;;;25.60;11.47;;;-14.60;99.90;;;;;;8388870;28;20184;-66
2021/12/26 05:55:47;;;;;;;25.83;11.33;;;-14.60;99.90;;;;;;8382552;28;20238;-66
2021/12/26 05:59:48;;;;;;;18.57;10.27;;;-14.60;99.90;;;;;;8387454;28;20181;-66
2021/12/26 06:03:48;;;;;;;22.97;11.03;;;-14.60;99.90;;;;;;8393069;28;20208;-66
2021/12/26 06:07:49;;;;;;;18.87;9.10;;;-14.60;99.90;;;;;;8395373;28;20185;-66
2021/12/26 06:11:50;;;;;;;26.27;10.53;;;-14.60;77.20;;;;;;8419332;28;20223;-66
2021/12/26 06:15:51;;;;;;;15.13;7.97;;;-14.70;1.00;;;;;;8389192;28;20253;-66
2021/12/26 06:19:52;;;;;;;23.87;9.93;;;-14.70;1.00;;;;;;8392079;28;20285;-66
2021/12/26 06:23:53;;;;;;;27.63;8.77;;;-14.70;1.00;;;;;;8420806;28;20209;-66
2021/12/26 06:27:54;;;;;;;21.27;9.83;;;-14.70;1.00;;;;;;8386867;28;20219;-66
2021/12/26 06:31:54;;;;;;;30.13;12.53;;;-14.70;99.90;;;;;;8384569;28;20195;-66
2021/12/26 06:35:55;;;;;;;28.87;12.67;;;-14.70;1.00;;;;;;8388236;28;20185;-66
2021/12/26 06:39:59;;;;;;;17.87;10.60;;;-14.60;99.90;;;;;;8386684;28;20196;-66
2021/12/26 06:44:00;;;;;;;29.13;12.30;;;-14.60;99.90;;;;;;8389248;28;20265;-66
2021/12/26 06:48:02;;;;;;;16.70;9.00;;;-14.70;7.80;;;;;;8383156;28;20184;-66
2021/12/26 06:52:05;;;;;;;33.53;12.07;;;-14.70;99.90;;;;;;8401925;28;20202;-66
2021/12/26 06:56:06;;;;;;;20.83;8.40;;;-14.70;1.00;;;;;;8391799;28;20188;-66
2021/12/26 07:00:10;;;;;;;24.23;10.30;;;-14.80;1.00;;;;;;8392663;28;20189;-66
2021/12/26 07:04:11;;;;;;;20.80;9.17;;;-14.70;1.00;;;;;;8393871;28;20176;-66
2021/12/26 07:08:12;;;;;;;26.43;9.90;;;-14.70;1.00;;;;;;8401097;28;20236;-66
2021/12/26 07:12:13;;;;;;;33.60;11.30;;;-14.70;99.90;;;;;;8418249;28;20216;-66
2021/12/26 07:16:14;;;;;;;28.07;10.23;;;-14.70;1.00;;;;;;8388347;28;20199;-66
2021/12/26 07:20:16;;;;;;;45.13;12.57;;;-14.60;99.90;;;;;;8389479;28;20204;-66
2021/12/26 07:24:16;;;;;;;44.27;15.10;;;-14.60;1.00;;;;;;8389409;28;20251;-66
2021/12/26 07:28:17;;;;;;;46.73;16.10;;;-14.50;1.00;;;;;;8405907;28;20265;-66
2021/12/26 07:32:18;;;;;;;50.33;20.87;;;-14.40;1.00;;;;;;8390315;28;20197;-66
2021/12/26 07:36:19;;;;;;;51.77;19.87;;;-14.20;1.00;;;;;;8387971;28;20188;-73
2021/12/26 07:40:20;;;;;;;44.43;16.37;;;-14.10;99.90;;;;;;8389059;28;20188;-66
2021/12/26 07:44:21;;;;;;;37.20;14.80;;;-14.00;60.60;;;;;;8387636;28;20191;-67
2021/12/26 07:48:22;;;;;;;43.57;13.93;;;-13.90;99.90;;;;;;8402217;28;20184;-67
2021/12/26 07:52:28;;;;;;;28.97;11.50;;;-13.80;99.90;;;;;;8408348;28;20574;-66
2021/12/26 07:56:32;;;;;;;32.20;11.03;;;-13.70;99.90;;;;;;8384206;28;20192;-67
2021/12/26 08:00:33;;;;;;;75.50;23.83;;;-13.40;99.90;;;;;;8381530;28;20275;-67
2021/12/26 08:04:34;;;;;;;51.87;18.30;;;-13.20;99.90;;;;;;8389403;28;20255;-66
2021/12/26 08:08:36;;;;;;;48.30;16.57;;;-13.00;1.00;;;;;;8382873;28;20177;-66
2021/12/26 08:12:38;;;;;;;47.43;17.97;;;-12.80;1.00;;;;;;8392249;28;20204;-72
2021/12/26 08:16:39;;;;;;;43.67;19.97;;;-12.50;1.00;;;;;;8390175;28;20193;-66
2021/12/26 08:20:40;;;;;;;65.80;27.90;;;-12.30;1.00;;;;;;8390234;28;20209;-66
2021/12/26 08:24:41;;;;;;;43.33;20.57;;;-12.00;1.00;;;;;;8397280;28;20212;-66
2021/12/26 08:28:42;;;;;;;87.83;36.27;;;-11.80;1.00;;;;;;8386095;28;20186;-65
2021/12/26 08:32:43;;;;;;;156.33;51.37;;;-11.60;1.00;;;;;;8415856;27;20197;-66
2021/12/26 08:36:44;;;;;;;301.47;81.77;;;-11.30;1.00;;;;;;8381527;28;20182;-65
2021/12/26 08:40:45;;;;;;;256.67;74.23;;;-11.00;99.70;;;;;;8374659;28;20203;-66
2021/12/26 08:44:46;;;;;;;289.03;82.63;;;-10.60;99.90;;;;;;8424535;27;20192;-67
2021/12/26 08:48:47;;;;;;;262.27;83.70;;;-10.20;99.90;;;;;;8383254;28;20172;-68
2021/12/26 08:52:49;;;;;;;139.23;46.53;;;-9.80;99.90;;;;;;8386794;28;20185;-68
2021/12/26 08:56:49;;;;;;;186.63;61.10;;;-9.40;99.90;;;;;;8368268;28;20195;-69
2021/12/26 09:00:50;;;;;;;185.10;58.90;;;-9.00;99.90;;;;;;8380675;28;20239;-67
2021/12/26 09:04:51;;;;;;;176.20;59.20;;;-8.70;99.90;;;;;;8376776;28;20178;-67
2021/12/26 09:08:52;;;;;;;164.43;60.63;;;-8.40;99.90;;;;;;8388797;28;20200;-67
2021/12/26 09:12:53;;;;;;;125.33;50.70;;;-8.20;99.90;;;;;;8389316;28;20188;-68
2021/12/26 09:16:55;;;;;;;87.27;31.73;;;-8.00;99.90;;;;;;8387691;28;20273;-67
2021/12/26 09:20:56;;;;;;;61.97;26.77;;;-7.70;99.90;;;;;;8390568;28;20220;-67
2021/12/26 09:24:57;;;;;;;60.90;27.00;;;-7.50;99.90;;;;;;8385704;28;20183;-67
2021/12/26 09:28:58;;;;;;;50.17;22.50;;;-7.30;99.90;;;;;;8386702;28;20183;-67
2021/12/26 09:32:59;;;;;;;53.30;21.23;;;-7.00;99.90;;;;;;8378815;28;20193;-67
2021/12/26 09:37:02;;;;;;;53.00;21.10;;;-6.80;99.90;;;;;;8378213;28;20204;-67
2021/12/26 09:41:03;;;;;;;67.00;23.23;;;-6.60;99.90;;;;;;8412106;28;20209;-68
2021/12/26 09:45:08;;;;;;;67.80;23.77;;;-6.40;99.90;;;;;;8402393;28;20520;-67
2021/12/26 09:49:10;;;;;;;52.97;23.17;;;-6.20;99.90;;;;;;8386034;28;20189;-68
2021/12/26 09:53:11;;;;;;;57.50;23.17;;;-6.00;99.90;;;;;;8379201;28;20287;-68
2021/12/26 09:57:12;;;;;;;58.10;24.00;;;-5.80;99.90;;;;;;8387636;28;20371;-68
2021/12/26 10:01:14;;;;;;;53.57;24.23;;;-5.70;99.90;;;;;;8390146;28;20189;-68
2021/12/26 10:05:15;;;;;;;55.40;22.00;;;-5.50;99.90;;;;;;8388418;28;20273;-68
2021/12/26 10:09:18;;;;;;;38.03;19.07;;;-5.40;99.90;;;;;;8401607;28;20208;-68
2021/12/26 10:13:48;;;;;;;36.83;19.20;;;-5.20;99.90;;;;;;8387465;28;20192;-68
2021/12/26 10:17:48;;;;;;;41.87;19.67;;;-5.10;99.90;;;;;;8386511;28;20198;-68
2021/12/26 10:21:58;;;;;;;44.27;20.87;;;-5.10;29.00;;;;;;8381558;28;20212;-68
2021/12/26 10:25:59;;;;;;;65.80;23.67;;;-5.00;99.90;;;;;;8386564;28;20204;-68
2021/12/26 10:30:04;;;;;;;68.53;29.20;;;-4.80;99.90;;;;;;8379630;28;20195;-70
2021/12/26 10:34:05;;;;;;;70.23;28.00;;;-4.80;95.80;;;;;;8412300;28;20230;-68
2021/12/26 10:38:15;;;;;;;79.57;29.57;;;-4.70;29.80;;;;;;8383803;28;20189;-68
2021/12/26 10:42:20;;;;;;;94.53;32.67;;;-4.50;92.00;;;;;;8380317;28;20209;-67
2021/12/26 10:46:21;;;;;;;85.40;34.10;;;-4.40;99.90;;;;;;8387605;28;20279;-68
2021/12/26 10:50:25;;;;;;;51.23;21.17;;;-4.40;1.00;;;;;;8386823;28;20186;-68
2021/12/26 10:54:31;;;;;;;45.30;19.50;;;-4.30;1.00;;;;;;8387598;28;20213;-68
2021/12/26 10:58:35;;;;;;;76.73;27.47;;;-4.30;38.00;;;;;;8378059;28;20177;-68
2021/12/26 11:02:40;;;;;;;57.57;24.40;;;-4.20;99.90;;;;;;8392005;28;20223;-68
2021/12/26 11:07:00;;;;;;;61.40;23.90;;;-4.20;99.90;;;;;;8387026;28;20185;-68
2021/12/26 11:11:18;;;;;;;48.47;20.40;;;-4.00;99.90;;;;;;8395092;28;20209;-68
2021/12/26 11:15:21;;;;;;;78.17;27.17;;;-4.00;99.90;;;;;;8373554;28;20185;-68
2021/12/26 11:19:45;;;;;;;59.03;22.30;;;-4.00;99.90;;;;;;8381319;28;20292;-75
2021/12/26 11:23:46;;;;;;;52.80;24.33;;;-3.90;99.90;;;;;;8385894;28;20201;-68
2021/12/26 11:27:47;;;;;;;58.83;23.43;;;-3.80;99.90;;;;;;8367936;28;20178;-68
2021/12/26 11:31:53;;;;;;;53.50;26.70;;;-3.70;99.90;;;;;;8400007;28;20287;-68
2021/12/26 11:35:56;;;;;;;61.10;25.47;;;-3.60;99.90;;;;;;8391902;28;20165;-68
2021/12/26 11:39:57;;;;;;;57.00;25.40;;;-3.50;99.90;;;;;;8387455;28;20185;-68
2021/12/26 11:44:34;;;;;;;54.90;24.30;;;-3.50;99.90;;;;;;8374470;28;20209;-68
2021/12/26 11:49:01;;;;;;;129.43;49.50;;;-3.40;99.90;;;;;;8384679;28;20195;-68
2021/12/26 11:53:45;;;;;;;48.80;20.83;;;-3.40;99.90;;;;;;8425782;27;20230;-68
2021/12/26 11:58:15;;;;;;;46.73;17.87;;;-3.40;99.90;;;;;;8391131;28;20275;-68
2021/12/26 12:02:47;;;;;;;44.57;19.83;;;-3.40;99.90;;;;;;8388685;28;20210;-68
2021/12/26 12:06:53;;;;;;;39.53;18.17;;;-3.30;99.90;;;;;;8392177;28;20193;-69
2021/12/26 12:10:56;;;;;;;37.20;18.27;;;-3.20;99.90;;;;;;8386384;28;20205;-68
2021/12/26 12:14:58;;;;;;;35.97;18.00;;;-3.20;99.90;;;;;;8381161;28;20180;-69
2021/12/26 12:19:04;;;;;;;35.60;16.33;;;-3.10;99.90;;;;;;8419863;27;20185;-69
2021/12/26 12:23:08;;;;;;;37.37;15.67;;;-3.00;99.90;;;;;;8395729;28;20220;-68
2021/12/26 12:27:10;;;;;;;29.47;13.90;;;-2.90;99.90;;;;;;8383880;28;20220;-68
2021/12/26 12:31:11;;;;;;;29.67;14.63;;;-2.90;99.90;;;;;;8392344;28;20189;-68
2021/12/26 12:35:16;;;;;;;32.67;14.50;;;-2.80;99.90;;;;;;8394786;28;20263;-68
2021/12/26 12:39:23;;;;;;;31.47;14.20;;;-2.80;99.90;;;;;;8386415;28;20188;-68
2021/12/26 12:43:27;;;;;;;30.63;13.73;;;-2.90;99.90;;;;;;8375122;28;20217;-68
2021/12/26 12:47:28;;;;;;;29.90;12.10;;;-2.90;99.90;;;;;;8384168;28;20181;-69
2021/12/26 12:51:33;;;;;;;33.67;15.70;;;-2.90;99.90;;;;;;8376881;28;20221;-68
2021/12/26 12:55:47;;;;;;;43.27;19.80;;;-2.90;99.90;;;;;;8382531;28;20209;-68
2021/12/26 12:59:47;;;;;;;31.90;14.93;;;-2.80;99.90;;;;;;8417382;28;20189;-68
2021/12/26 13:03:58;;;;;;;31.77;14.13;;;-2.80;99.90;;;;;;8383045;28;20262;-68
2021/12/26 13:08:04;;;;;;;33.53;15.67;;;-2.80;99.90;;;;;;8375795;28;20220;-68
2021/12/26 13:12:13;;;;;;;52.67;18.70;;;-2.80;99.90;;;;;;8387464;28;20224;-68
2021/12/26 13:16:14;;;;;;;88.43;32.13;;;-2.80;99.90;;;;;;8381672;28;20219;-68
2021/12/26 13:20:20;;;;;;;58.43;25.30;;;-2.80;99.90;;;;;;8397932;28;20200;-68
2021/12/26 13:24:37;;;;;;;51.57;21.27;;;-2.90;99.90;;;;;;8383727;28;20262;-68
2021/12/26 13:28:38;;;;;;;37.57;16.57;;;-2.90;99.90;;;;;;8381285;28;20297;-68
2021/12/26 13:32:41;;;;;;;53.23;24.43;;;-2.90;99.90;;;;;;8387966;28;20197;-68
2021/12/26 13:36:41;;;;;;;58.03;21.33;;;-2.90;99.90;;;;;;8391358;28;20192;-69
2021/12/26 13:40:46;;;;;;;44.17;17.70;;;-2.90;99.90;;;;;;8389445;28;20591;-68
2021/12/26 13:44:46;;;;;;;39.60;17.83;;;-2.90;99.90;;;;;;8376836;28;20264;-68
2021/12/26 13:48:51;;;;;;;42.13;18.90;;;-3.00;99.90;;;;;;8389669;28;20243;-68
2021/12/26 13:53:18;;;;;;;41.73;17.73;;;-3.10;99.90;;;;;;8383201;28;20216;-67
2021/12/26 13:57:23;;;;;;;45.17;20.67;;;-3.20;99.90;;;;;;8382564;28;20242;-68
2021/12/26 14:01:24;;;;;;;44.43;16.57;;;-3.20;99.90;;;;;;8386033;28;20209;-68
2021/12/26 14:05:25;;;;;;;28.63;13.87;;;-3.30;99.90;;;;;;8389039;28;20212;-68
2021/12/26 14:09:39;;;;;;;48.60;18.70;;;-3.40;99.90;;;;;;8384805;28;20205;-67
2021/12/26 14:13:50;;;;;;;64.00;25.00;;;-3.50;99.90;;;;;;8379660;28;20189;-67
2021/12/26 14:17:56;;;;;;;38.97;16.70;;;-3.50;99.90;;;;;;8394293;28;20180;-67
2021/12/26 14:21:57;;;;;;;30.27;14.63;;;-3.60;99.90;;;;;;8393487;28;20216;-67
2021/12/26 14:26:12;;;;;;;40.63;18.17;;;-3.70;99.90;;;;;;8396050;28;20185;-67
2021/12/26 14:30:14;;;;;;;50.13;18.43;;;-3.90;99.90;;;;;;8386864;28;20200;-67
2021/12/26 14:34:27;;;;;;;64.93;24.90;;;-4.00;99.90;;;;;;8384626;28;20220;-67
2021/12/26 14:38:28;;;;;;;66.27;25.07;;;-4.20;99.90;;;;;;8379534;28;20177;-67
2021/12/26 14:42:30;;;;;;;96.73;32.77;;;-4.30;99.90;;;;;;8381179;28;20267;-67
2021/12/26 14:46:32;;;;;;;71.30;28.10;;;-4.40;99.90;;;;;;8387196;28;20188;-67
2021/12/26 14:50:33;;;;;;;41.03;18.57;;;-4.60;99.90;;;;;;8386016;28;20230;-67
2021/12/26 14:54:36;;;;;;;49.50;18.63;;;-4.80;99.90;;;;;;8380795;28;20184;-67
2021/12/26 14:58:50;;;;;;;55.90;18.80;;;-5.00;99.90;;;;;;8391359;28;20185;-67
2021/12/26 15:02:54;;;;;;;32.63;14.83;;;-5.10;99.90;;;;;;8380910;28;20311;-67
2021/12/26 15:06:55;;;;;;;36.17;15.67;;;-5.20;99.90;;;;;;8384958;28;20193;-67
2021/12/26 15:10:56;;;;;;;30.57;14.13;;;-5.20;99.90;;;;;;8392329;28;20216;-68
2021/12/26 15:15:27;;;;;;;32.63;14.40;;;-5.30;99.90;;;;;;8390620;28;20212;-68
2021/12/26 15:19:39;;;;;;;36.50;15.43;;;-5.40;99.90;;;;;;8385290;28;20192;-68
2021/12/26 15:23:40;;;;;;;43.17;15.93;;;-5.50;99.90;;;;;;8392043;28;20236;-64
2021/12/26 15:27:41;;;;;;;52.07;18.63;;;-5.60;99.90;;;;;;8391588;28;20188;-69
2021/12/26 15:31:46;;;;;;;37.17;17.27;;;-5.60;99.90;;;;;;8387747;28;20185;-69
2021/12/26 15:35:49;;;;;;;28.53;13.90;;;-5.50;99.90;;;;;;8395240;28;20183;-69
2021/12/26 15:40:01;;;;;;;53.17;27.10;;;-5.30;99.90;;;;;;8394662;28;20508;-69
2021/12/26 15:44:04;;;;;;;34.37;14.30;;;-4.90;99.90;;;;;;8401667;28;20205;-69
2021/12/26 15:48:05;;;;;;;36.97;15.50;;;-4.80;99.90;;;;;;8385616;28;20189;-69
2021/12/26 15:52:08;;;;;;;35.17;15.60;;;-4.60;99.90;;;;;;8387968;28;20185;-69
2021/12/26 15:56:10;;;;;;;41.30;18.00;;;-4.60;99.90;;;;;;8390127;28;20181;-68
2021/12/26 16:00:12;;;;;;;41.63;15.80;;;-4.80;99.90;;;;;;8390940;28;20185;-68
2021/12/26 16:04:13;;;;;;;119.83;37.53;;;-5.10;99.90;;;;;;8385087;28;20236;-69
2021/12/26 16:08:15;;;;;;;94.27;35.47;;;-5.30;99.90;;;;;;8390608;28;20185;-67
2021/12/26 16:12:16;;;;;;;56.63;23.20;;;-5.40;99.90;;;;;;8384508;28;20212;-67
2021/12/26 16:16:16;;;;;;;55.13;26.60;;;-5.40;99.90;;;;;;8382661;28;20299;-67
2021/12/26 16:20:18;;;;;;;402.33;174.47;;;-5.20;99.90;;;;;;8391904;28;20208;-67
2021/12/26 16:24:18;;;;;;;50.60;23.37;;;-5.20;99.90;;;;;;8391271;28;20216;-64
2021/12/26 16:28:20;;;;;;;32.20;15.37;;;-5.20;99.90;;;;;;8387321;28;20188;-67
2021/12/26 16:32:20;;;;;;;27.60;13.87;;;-5.40;99.90;;;;;;8388491;28;20193;-66
2021/12/26 16:36:21;;;;;;;88.30;26.33;;;-5.60;99.90;;;;;;8385126;28;20217;-64
2021/12/26 16:40:22;;;;;;;68.20;21.27;;;-5.80;99.90;;;;;;8394853;28;20183;-63
2021/12/26 16:44:23;;;;;;;90.87;30.20;;;-6.00;99.90;;;;;;8391967;28;20270;-64
2021/12/26 16:48:25;;;;;;;62.20;23.03;;;-6.10;99.90;;;;;;8391114;28;20177;-63
2021/12/26 16:52:26;;;;;;;53.87;18.50;;;-6.20;99.90;;;;;;8379484;28;20205;-63
2021/12/26 16:56:27;;;;;;;88.23;27.53;;;-6.30;99.90;;;;;;8386206;28;20204;-63
2021/12/26 17:00:28;;;;;;;113.40;33.13;;;-6.40;99.90;;;;;;8386618;28;20253;-64
2021/12/26 17:04:29;;;;;;;40.87;19.77;;;-6.40;99.90;;;;;;8384214;28;20350;-64
2021/12/26 17:08:30;;;;;;;88.37;35.10;;;-6.50;99.90;;;;;;8418492;27;20190;-63
2021/12/26 17:12:31;;;;;;;68.90;24.80;;;-6.50;99.90;;;;;;8382295;28;20203;-66
2021/12/26 17:16:32;;;;;;;59.13;22.70;;;-6.50;99.90;;;;;;8378733;28;20192;-63
2021/12/26 17:20:34;;;;;;;54.87;24.00;;;-6.60;99.90;;;;;;8381310;28;20202;-63
2021/12/26 17:24:36;;;;;;;61.27;23.70;;;-6.70;99.90;;;;;;8387781;28;20201;-63
2021/12/26 17:28:36;;;;;;;86.17;29.57;;;-6.70;99.90;;;;;;8387805;28;20185;-64
2021/12/26 17:32:38;;;;;;;63.83;24.17;;;-6.80;99.90;;;;;;8387757;28;20240;-63
2021/12/26 17:36:39;;;;;;;82.97;31.00;;;-6.80;99.90;;;;;;8388990;28;20282;-63
2021/12/26 17:40:44;;;;;;;93.03;32.83;;;-6.80;99.90;;;;;;8388136;28;20190;-63
2021/12/26 17:44:46;;;;;;;72.93;28.47;;;-6.90;99.90;;;;;;8383648;28;20185;-63
2021/12/26 17:48:47;;;;;;;74.17;26.53;;;-7.00;99.90;;;;;;8424180;27;20218;-65
2021/12/26 17:52:48;;;;;;;67.30;29.27;;;-7.10;99.90;;;;;;8385718;28;20197;-65
2021/12/26 17:56:49;;;;;;;164.20;45.73;;;-7.10;99.90;;;;;;8388197;28;20188;-63
2021/12/26 18:00:50;;;;;;;88.93;35.47;;;-7.10;99.90;;;;;;8382591;28;20189;-63
2021/12/26 18:04:51;;;;;;;86.93;30.93;;;-7.10;99.90;;;;;;8378345;28;20181;-63
2021/12/26 18:08:52;;;;;;;176.67;54.40;;;-7.20;99.90;;;;;;8377844;28;20197;-66
2021/12/26 18:12:52;;;;;;;135.33;40.90;;;-7.20;99.90;;;;;;8389903;28;20340;-66
2021/12/26 18:16:53;;;;;;;105.63;33.80;;;-7.30;99.90;;;;;;8406246;28;20188;-64
2021/12/26 18:20:56;;;;;;;154.30;41.77;;;-7.30;99.90;;;;;;8396245;28;20209;-63
2021/12/26 18:24:57;;;;;;;233.80;71.97;;;-7.30;99.90;;;;;;8414948;28;20177;-64
2021/12/26 18:28:59;;;;;;;189.07;60.93;;;-7.40;99.90;;;;;;8382739;28;20252;-66
2021/12/26 18:33:00;;;;;;;122.87;43.87;;;-7.40;99.90;;;;;;8382184;28;20885;-66
2021/12/26 18:37:01;;;;;;;70.17;27.53;;;-7.50;99.90;;;;;;8375254;28;20196;-66
2021/12/26 18:41:04;;;;;;;78.63;27.23;;;-7.40;99.90;;;;;;8410369;28;20212;-67
2021/12/26 18:45:08;;;;;;;70.47;28.23;;;-7.50;99.90;;;;;;8388645;28;20210;-66
2021/12/26 18:49:09;;;;;;;64.53;26.83;;;-7.50;99.90;;;;;;8412161;28;20185;-66
2021/12/26 18:53:11;;;;;;;82.43;28.23;;;-7.50;99.90;;;;;;8381304;28;20252;-65
2021/12/26 18:57:12;;;;;;;72.03;26.93;;;-7.60;99.90;;;;;;8386094;28;20186;-66
2021/12/26 19:01:13;;;;;;;72.17;30.20;;;-7.60;99.90;;;;;;8386105;28;20213;-67
2021/12/26 19:05:15;;;;;;;87.03;34.23;;;-7.60;99.90;;;;;;8379329;28;20204;-66
2021/12/26 19:09:18;;;;;;;59.83;25.87;;;-7.50;99.90;;;;;;8387886;28;20201;-66
2021/12/26 19:13:24;;;;;;;63.20;25.70;;;-7.50;99.90;;;;;;8399911;28;20295;-66
2021/12/26 19:17:25;;;;;;;48.87;23.50;;;-7.50;99.90;;;;;;8384799;28;20189;-66
2021/12/26 19:21:26;;;;;;;57.63;22.67;;;-7.50;99.90;;;;;;8389312;28;20219;-64
2021/12/26 19:25:30;;;;;;;47.17;20.40;;;-7.40;99.90;;;;;;8392578;28;20189;-64
2021/12/26 19:29:37;;;;;;;41.03;19.40;;;-7.40;99.90;;;;;;8392545;28;20260;-66
2021/12/26 19:33:44;;;;;;;49.83;22.53;;;-7.40;99.90;;;;;;8391874;28;20505;-66
2021/12/26 19:37:46;;;;;;;51.10;25.20;;;-7.30;99.90;;;;;;8398446;28;20180;-66
2021/12/26 19:41:49;;;;;;;50.53;20.83;;;-7.20;99.90;;;;;;8397878;28;20280;-65
2021/12/26 19:45:50;;;;;;;48.30;19.47;;;-7.20;99.90;;;;;;8393289;28;20264;-63
2021/12/26 19:49:52;;;;;;;47.13;19.97;;;-7.10;99.90;;;;;;8421487;28;20185;-66
2021/12/26 19:53:54;;;;;;;50.27;20.27;;;-7.00;94.80;;;;;;8385977;28;20196;-63
2021/12/26 19:57:55;;;;;;;43.77;19.33;;;-7.00;62.40;;;;;;8387363;28;20193;-66
2021/12/26 20:01:58;;;;;;;38.97;20.57;;;-7.00;21.40;;;;;;8389188;28;20298;-66
2021/12/26 20:06:04;;;;;;;43.00;19.10;;;-7.00;1.00;;;;;;8395855;28;20186;-66
2021/12/26 20:10:06;;;;;;;44.80;19.10;;;-7.00;1.00;;;;;;8399893;28;20207;-69
2021/12/26 20:14:10;;;;;;;52.63;20.10;;;-6.90;99.90;;;;;;8396922;28;20197;-66
2021/12/26 20:18:11;;;;;;;49.47;20.73;;;-6.90;1.00;;;;;;8420023;27;20191;-66
2021/12/26 20:22:12;;;;;;;44.40;18.73;;;-7.00;1.00;;;;;;8389584;28;20213;-68
2021/12/26 20:26:13;;;;;;;48.30;20.40;;;-7.00;1.00;;;;;;8380839;28;20205;-64
2021/12/26 20:30:14;;;;;;;53.30;20.50;;;-7.10;1.00;;;;;;8378855;28;20294;-65
2021/12/26 20:34:15;;;;;;;53.93;21.57;;;-7.20;1.00;;;;;;8379558;28;20231;-64
2021/12/26 20:38:17;;;;;;;49.27;22.77;;;-7.20;1.00;;;;;;8386014;28;20190;-64